sensor_id;sensor_type;location;lat;lon;timestamp;P1;durP1;ratioP1;P2;durP2;ratioP2
44426;SDS011;30133;47.866;-4.222;2024-03-23T00:51:10;9.00;;;1.40;;
44426;SDS011;30133;47.866;-4.222;2024-03-23T00:53:57;6.05;;;1.67;;
44426;SDS011;30133;47.866;-4.222;2024-03-23T00:56:43;6.38;;;1.70;;
44426;SDS011;30133;47.866;-4.222;2024-03-23T00:59:29;6.68;;;1.92;;
44426;SDS011;30133;47.866;-4.222;2024-03-23T01:02:16;5.90;;;1.65;;
44426;SDS011;30133;47.866;-4.222;2024-03-23T01:05:02;5.13;;;1.50;;
44426;SDS011;30133;47.866;-4.222;2024-03-23T01:07:48;6.72;;;1.42;;
44426;SDS011;30133;47.866;-4.222;2024-03-23T01:10:34;10.20;;;2.03;;
44426;SDS011;30133;47.866;-4.222;2024-03-23T01:13:21;9.23;;;1.80;;
44426;SDS011;30133;47.866;-4.222;2024-03-23T01:16:08;5.20;;;1.60;;
44426;SDS011;30133;47.866;-4.222;2024-03-23T01:18:54;4.28;;;1.17;;
44426;SDS011;30133;47.866;-4.222;2024-03-23T01:21:40;6.75;;;1.50;;
44426;SDS011;30133;47.866;-4.222;2024-03-23T01:24:26;8.18;;;1.58;;
44426;SDS011;30133;47.866;-4.222;2024-03-23T01:27:13;7.00;;;1.90;;
44426;SDS011;30133;47.866;-4.222;2024-03-23T01:30:00;7.03;;;1.65;;
44426;SDS011;30133;47.866;-4.222;2024-03-23T01:32:46;4.18;;;1.15;;
44426;SDS011;30133;47.866;-4.222;2024-03-23T01:35:38;5.68;;;1.60;;
44426;SDS011;30133;47.866;-4.222;2024-03-23T01:38:25;5.70;;;1.60;;
44426;SDS011;30133;47.866;-4.222;2024-03-23T01:41:17;8.38;;;1.50;;
44426;SDS011;30133;47.866;-4.222;2024-03-23T01:44:04;8.48;;;2.03;;
44426;SDS011;30133;47.866;-4.222;2024-03-23T01:46:53;5.00;;;1.45;;
44426;SDS011;30133;47.866;-4.222;2024-03-23T01:49:39;4.82;;;1.58;;
44426;SDS011;30133;47.866;-4.222;2024-03-23T01:52:26;5.07;;;1.83;;
44426;SDS011;30133;47.866;-4.222;2024-03-23T01:55:12;7.88;;;1.70;;
44426;SDS011;30133;47.866;-4.222;2024-03-23T01:57:58;10.73;;;1.33;;
44426;SDS011;30133;47.866;-4.222;2024-03-23T02:00:45;5.63;;;1.20;;
44426;SDS011;30133;47.866;-4.222;2024-03-23T02:03:31;5.35;;;1.15;;
44426;SDS011;30133;47.866;-4.222;2024-03-23T02:06:17;4.70;;;1.60;;
44426;SDS011;30133;47.866;-4.222;2024-03-23T02:09:03;6.65;;;1.45;;
44426;SDS011;30133;47.866;-4.222;2024-03-23T02:11:49;5.70;;;1.60;;
44426;SDS011;30133;47.866;-4.222;2024-03-23T02:14:35;8.07;;;1.92;;
44426;SDS011;30133;47.866;-4.222;2024-03-23T02:17:21;6.18;;;1.30;;
44426;SDS011;30133;47.866;-4.222;2024-03-23T02:20:07;6.90;;;1.45;;
44426;SDS011;30133;47.866;-4.222;2024-03-23T02:22:54;7.43;;;1.35;;
44426;SDS011;30133;47.866;-4.222;2024-03-23T02:25:40;5.05;;;1.23;;
44426;SDS011;30133;47.866;-4.222;2024-03-23T02:28:27;6.18;;;1.45;;
44426;SDS011;30133;47.866;-4.222;2024-03-23T02:31:13;5.63;;;1.05;;
44426;SDS011;30133;47.866;-4.222;2024-03-23T02:34:00;7.25;;;1.85;;
44426;SDS011;30133;47.866;-4.222;2024-03-23T02:36:52;6.40;;;1.05;;
44426;SDS011;30133;47.866;-4.222;2024-03-23T02:39:38;6.70;;;1.27;;
44426;SDS011;30133;47.866;-4.222;2024-03-23T02:42:25;8.05;;;1.70;;
44426;SDS011;30133;47.866;-4.222;2024-03-23T02:45:11;6.75;;;1.35;;
44426;SDS011;30133;47.866;-4.222;2024-03-23T02:47:57;7.82;;;1.30;;
44426;SDS011;30133;47.866;-4.222;2024-03-23T02:50:43;4.88;;;1.30;;
44426;SDS011;30133;47.866;-4.222;2024-03-23T02:53:29;5.50;;;1.30;;
44426;SDS011;30133;47.866;-4.222;2024-03-23T02:56:15;4.63;;;1.10;;
44426;SDS011;30133;47.866;-4.222;2024-03-23T02:59:02;6.72;;;1.48;;
44426;SDS011;30133;47.866;-4.222;2024-03-23T03:01:48;5.03;;;1.38;;
44426;SDS011;30133;47.866;-4.222;2024-03-23T03:04:34;9.48;;;1.70;;
44426;SDS011;30133;47.866;-4.222;2024-03-23T03:07:20;3.95;;;1.33;;
44426;SDS011;30133;47.866;-4.222;2024-03-23T03:10:06;6.45;;;1.88;;
44426;SDS011;30133;47.866;-4.222;2024-03-23T03:12:54;4.72;;;1.48;;
44426;SDS011;30133;47.866;-4.222;2024-03-23T03:15:43;7.00;;;1.60;;
44426;SDS011;30133;47.866;-4.222;2024-03-23T03:18:29;6.40;;;1.30;;
44426;SDS011;30133;47.866;-4.222;2024-03-23T03:21:15;2.85;;;1.27;;
44426;SDS011;30133;47.866;-4.222;2024-03-23T03:24:02;6.82;;;1.75;;
44426;SDS011;30133;47.866;-4.222;2024-03-23T03:26:48;4.82;;;1.40;;
44426;SDS011;30133;47.866;-4.222;2024-03-23T03:29:35;8.13;;;1.20;;
44426;SDS011;30133;47.866;-4.222;2024-03-23T03:32:21;9.13;;;1.80;;
44426;SDS011;30133;47.866;-4.222;2024-03-23T03:35:07;6.43;;;1.75;;
44426;SDS011;30133;47.866;-4.222;2024-03-23T03:38:00;7.88;;;1.40;;
44426;SDS011;30133;47.866;-4.222;2024-03-23T03:40:47;3.83;;;1.20;;
44426;SDS011;30133;47.866;-4.222;2024-03-23T03:43:33;4.25;;;1.23;;
44426;SDS011;30133;47.866;-4.222;2024-03-23T03:46:19;5.90;;;1.30;;
44426;SDS011;30133;47.866;-4.222;2024-03-23T03:49:05;11.13;;;2.00;;
44426;SDS011;30133;47.866;-4.222;2024-03-23T03:51:51;7.63;;;1.33;;
44426;SDS011;30133;47.866;-4.222;2024-03-23T03:54:37;7.30;;;1.50;;
44426;SDS011;30133;47.866;-4.222;2024-03-23T03:57:23;6.65;;;1.55;;
44426;SDS011;30133;47.866;-4.222;2024-03-23T04:00:10;6.80;;;1.58;;
44426;SDS011;30133;47.866;-4.222;2024-03-23T04:02:59;4.88;;;1.67;;
44426;SDS011;30133;47.866;-4.222;2024-03-23T04:05:52;7.80;;;1.33;;
44426;SDS011;30133;47.866;-4.222;2024-03-23T04:08:39;4.28;;;1.13;;
44426;SDS011;30133;47.866;-4.222;2024-03-23T04:11:25;6.75;;;1.63;;
44426;SDS011;30133;47.866;-4.222;2024-03-23T04:14:11;4.32;;;1.38;;
44426;SDS011;30133;47.866;-4.222;2024-03-23T04:16:57;6.90;;;1.52;;
44426;SDS011;30133;47.866;-4.222;2024-03-23T04:19:44;4.40;;;1.52;;
44426;SDS011;30133;47.866;-4.222;2024-03-23T04:22:31;7.10;;;1.45;;
44426;SDS011;30133;47.866;-4.222;2024-03-23T04:25:17;8.13;;;1.38;;
44426;SDS011;30133;47.866;-4.222;2024-03-23T04:28:05;5.82;;;1.73;;
44426;SDS011;30133;47.866;-4.222;2024-03-23T04:30:51;6.25;;;1.15;;
44426;SDS011;30133;47.866;-4.222;2024-03-23T04:33:37;5.85;;;1.60;;
44426;SDS011;30133;47.866;-4.222;2024-03-23T04:36:23;4.70;;;1.40;;
44426;SDS011;30133;47.866;-4.222;2024-03-23T04:42:02;5.07;;;1.38;;
44426;SDS011;30133;47.866;-4.222;2024-03-23T04:44:48;8.88;;;1.90;;
44426;SDS011;30133;47.866;-4.222;2024-03-23T04:47:34;6.38;;;1.90;;
44426;SDS011;30133;47.866;-4.222;2024-03-23T04:50:21;4.07;;;1.30;;
44426;SDS011;30133;47.866;-4.222;2024-03-23T04:53:07;6.20;;;1.70;;
44426;SDS011;30133;47.866;-4.222;2024-03-23T04:55:56;8.30;;;1.58;;
44426;SDS011;30133;47.866;-4.222;2024-03-23T04:58:44;5.78;;;1.70;;
44426;SDS011;30133;47.866;-4.222;2024-03-23T05:01:31;4.13;;;1.38;;
44426;SDS011;30133;47.866;-4.222;2024-03-23T05:04:17;7.20;;;1.60;;
44426;SDS011;30133;47.866;-4.222;2024-03-23T05:07:03;6.22;;;1.52;;
44426;SDS011;30133;47.866;-4.222;2024-03-23T05:09:56;6.97;;;1.63;;
44426;SDS011;30133;47.866;-4.222;2024-03-23T05:12:42;8.82;;;1.55;;
44426;SDS011;30133;47.866;-4.222;2024-03-23T05:15:30;8.20;;;1.98;;
44426;SDS011;30133;47.866;-4.222;2024-03-23T05:18:16;6.32;;;1.80;;
44426;SDS011;30133;47.866;-4.222;2024-03-23T05:21:02;6.88;;;1.70;;
44426;SDS011;30133;47.866;-4.222;2024-03-23T05:23:49;3.50;;;1.20;;
44426;SDS011;30133;47.866;-4.222;2024-03-23T05:26:35;3.50;;;1.48;;
44426;SDS011;30133;47.866;-4.222;2024-03-23T05:29:21;6.00;;;1.50;;
44426;SDS011;30133;47.866;-4.222;2024-03-23T05:32:07;5.28;;;1.25;;
44426;SDS011;30133;47.866;-4.222;2024-03-23T05:34:53;4.63;;;1.40;;
44426;SDS011;30133;47.866;-4.222;2024-03-23T05:37:45;6.63;;;1.73;;
44426;SDS011;30133;47.866;-4.222;2024-03-23T05:40:37;7.43;;;1.60;;
44426;SDS011;30133;47.866;-4.222;2024-03-23T05:43:26;5.97;;;1.50;;
44426;SDS011;30133;47.866;-4.222;2024-03-23T05:46:12;6.63;;;1.52;;
44426;SDS011;30133;47.866;-4.222;2024-03-23T05:48:58;6.18;;;1.40;;
44426;SDS011;30133;47.866;-4.222;2024-03-23T05:51:47;5.70;;;1.58;;
44426;SDS011;30133;47.866;-4.222;2024-03-23T05:54:33;3.65;;;1.10;;
44426;SDS011;30133;47.866;-4.222;2024-03-23T05:57:19;5.20;;;1.20;;
44426;SDS011;30133;47.866;-4.222;2024-03-23T06:00:05;4.10;;;1.42;;
44426;SDS011;30133;47.866;-4.222;2024-03-23T06:03:01;5.40;;;1.30;;
44426;SDS011;30133;47.866;-4.222;2024-03-23T06:05:47;8.38;;;1.52;;
44426;SDS011;30133;47.866;-4.222;2024-03-23T06:08:33;5.97;;;1.60;;
44426;SDS011;30133;47.866;-4.222;2024-03-23T06:11:21;11.02;;;1.70;;
44426;SDS011;30133;47.866;-4.222;2024-03-23T06:14:07;10.32;;;1.77;;
44426;SDS011;30133;47.866;-4.222;2024-03-23T06:16:53;6.07;;;1.50;;
44426;SDS011;30133;47.866;-4.222;2024-03-23T06:19:39;8.73;;;1.90;;
44426;SDS011;30133;47.866;-4.222;2024-03-23T06:22:25;3.47;;;1.40;;
44426;SDS011;30133;47.866;-4.222;2024-03-23T06:25:11;5.50;;;1.40;;
44426;SDS011;30133;47.866;-4.222;2024-03-23T06:27:58;5.55;;;1.30;;
44426;SDS011;30133;47.866;-4.222;2024-03-23T06:30:44;5.78;;;1.70;;
44426;SDS011;30133;47.866;-4.222;2024-03-23T06:33:30;6.47;;;1.52;;
44426;SDS011;30133;47.866;-4.222;2024-03-23T06:36:16;8.40;;;1.65;;
44426;SDS011;30133;47.866;-4.222;2024-03-23T06:39:02;12.52;;;1.88;;
44426;SDS011;30133;47.866;-4.222;2024-03-23T06:41:54;6.47;;;1.73;;
44426;SDS011;30133;47.866;-4.222;2024-03-23T06:44:42;11.57;;;1.85;;
44426;SDS011;30133;47.866;-4.222;2024-03-23T06:47:29;8.75;;;1.70;;
44426;SDS011;30133;47.866;-4.222;2024-03-23T06:50:15;8.05;;;2.17;;
44426;SDS011;30133;47.866;-4.222;2024-03-23T06:53:01;7.80;;;1.58;;
44426;SDS011;30133;47.866;-4.222;2024-03-23T06:55:54;4.22;;;1.35;;
44426;SDS011;30133;47.866;-4.222;2024-03-23T06:58:40;7.90;;;1.60;;
44426;SDS011;30133;47.866;-4.222;2024-03-23T07:01:27;6.68;;;1.73;;
44426;SDS011;30133;47.866;-4.222;2024-03-23T07:04:14;6.70;;;1.98;;
44426;SDS011;30133;47.866;-4.222;2024-03-23T07:07:00;6.90;;;1.73;;
44426;SDS011;30133;47.866;-4.222;2024-03-23T07:09:49;5.18;;;1.23;;
44426;SDS011;30133;47.866;-4.222;2024-03-23T07:12:35;6.82;;;1.73;;
44426;SDS011;30133;47.866;-4.222;2024-03-23T07:15:21;7.25;;;1.65;;
44426;SDS011;30133;47.866;-4.222;2024-03-23T07:18:07;5.18;;;1.50;;
44426;SDS011;30133;47.866;-4.222;2024-03-23T07:20:57;8.90;;;1.73;;
44426;SDS011;30133;47.866;-4.222;2024-03-23T07:23:43;6.75;;;1.58;;
44426;SDS011;30133;47.866;-4.222;2024-03-23T07:26:32;7.78;;;1.80;;
44426;SDS011;30133;47.866;-4.222;2024-03-23T07:29:18;5.40;;;1.52;;
44426;SDS011;30133;47.866;-4.222;2024-03-23T07:32:10;7.18;;;1.60;;
44426;SDS011;30133;47.866;-4.222;2024-03-23T07:34:59;11.43;;;2.00;;
44426;SDS011;30133;47.866;-4.222;2024-03-23T07:37:45;11.43;;;1.98;;
44426;SDS011;30133;47.866;-4.222;2024-03-23T07:40:32;7.50;;;1.42;;
44426;SDS011;30133;47.866;-4.222;2024-03-23T07:43:25;4.47;;;1.65;;
44426;SDS011;30133;47.866;-4.222;2024-03-23T07:46:11;9.07;;;1.48;;
44426;SDS011;30133;47.866;-4.222;2024-03-23T07:48:57;9.10;;;1.60;;
44426;SDS011;30133;47.866;-4.222;2024-03-23T07:51:43;5.72;;;1.65;;
44426;SDS011;30133;47.866;-4.222;2024-03-23T07:54:30;6.38;;;1.60;;
44426;SDS011;30133;47.866;-4.222;2024-03-23T07:57:16;9.25;;;1.90;;
44426;SDS011;30133;47.866;-4.222;2024-03-23T08:00:02;8.00;;;1.63;;
44426;SDS011;30133;47.866;-4.222;2024-03-23T08:02:50;10.18;;;1.65;;
44426;SDS011;30133;47.866;-4.222;2024-03-23T08:05:37;12.15;;;1.77;;
44426;SDS011;30133;47.866;-4.222;2024-03-23T08:08:23;5.45;;;1.90;;
44426;SDS011;30133;47.866;-4.222;2024-03-23T08:11:09;4.68;;;2.15;;
44426;SDS011;30133;47.866;-4.222;2024-03-23T08:13:55;8.10;;;1.55;;
44426;SDS011;30133;47.866;-4.222;2024-03-23T08:16:42;9.77;;;1.80;;
44426;SDS011;30133;47.866;-4.222;2024-03-23T08:19:33;6.68;;;1.73;;
44426;SDS011;30133;47.866;-4.222;2024-03-23T08:22:20;5.07;;;1.48;;
44426;SDS011;30133;47.866;-4.222;2024-03-23T08:25:06;7.57;;;1.80;;
44426;SDS011;30133;47.866;-4.222;2024-03-23T08:27:52;9.30;;;1.50;;
44426;SDS011;30133;47.866;-4.222;2024-03-23T08:30:38;5.60;;;1.52;;
44426;SDS011;30133;47.866;-4.222;2024-03-23T08:33:24;13.35;;;1.73;;
44426;SDS011;30133;47.866;-4.222;2024-03-23T08:36:10;6.00;;;1.50;;
44426;SDS011;30133;47.866;-4.222;2024-03-23T08:39:02;5.75;;;1.35;;
44426;SDS011;30133;47.866;-4.222;2024-03-23T08:41:48;8.77;;;1.75;;
44426;SDS011;30133;47.866;-4.222;2024-03-23T08:44:43;6.70;;;1.75;;
44426;SDS011;30133;47.866;-4.222;2024-03-23T08:47:33;3.88;;;1.23;;
44426;SDS011;30133;47.866;-4.222;2024-03-23T08:50:20;7.70;;;1.48;;
44426;SDS011;30133;47.866;-4.222;2024-03-23T08:53:07;4.40;;;1.20;;
44426;SDS011;30133;47.866;-4.222;2024-03-23T08:55:54;7.53;;;1.63;;
44426;SDS011;30133;47.866;-4.222;2024-03-23T08:58:41;5.43;;;1.55;;
44426;SDS011;30133;47.866;-4.222;2024-03-23T09:01:27;5.50;;;1.50;;
44426;SDS011;30133;47.866;-4.222;2024-03-23T09:04:13;8.68;;;1.30;;
44426;SDS011;30133;47.866;-4.222;2024-03-23T09:06:59;6.82;;;1.63;;
44426;SDS011;30133;47.866;-4.222;2024-03-23T09:09:45;8.23;;;1.95;;
44426;SDS011;30133;47.866;-4.222;2024-03-23T09:12:31;15.68;;;1.88;;
44426;SDS011;30133;47.866;-4.222;2024-03-23T09:15:18;15.75;;;2.08;;
44426;SDS011;30133;47.866;-4.222;2024-03-23T09:18:04;7.75;;;1.65;;
44426;SDS011;30133;47.866;-4.222;2024-03-23T09:20:50;10.18;;;1.65;;
44426;SDS011;30133;47.866;-4.222;2024-03-23T09:23:36;9.45;;;1.45;;
44426;SDS011;30133;47.866;-4.222;2024-03-23T09:26:22;6.45;;;1.52;;
44426;SDS011;30133;47.866;-4.222;2024-03-23T09:29:08;4.88;;;1.08;;
44426;SDS011;30133;47.866;-4.222;2024-03-23T09:31:54;10.10;;;1.50;;
44426;SDS011;30133;47.866;-4.222;2024-03-23T09:34:40;5.78;;;1.60;;
44426;SDS011;30133;47.866;-4.222;2024-03-23T09:37:26;7.25;;;1.50;;
44426;SDS011;30133;47.866;-4.222;2024-03-23T09:40:12;7.45;;;1.45;;
44426;SDS011;30133;47.866;-4.222;2024-03-23T09:42:59;9.55;;;1.50;;
44426;SDS011;30133;47.866;-4.222;2024-03-23T09:45:52;11.15;;;1.50;;
44426;SDS011;30133;47.866;-4.222;2024-03-23T09:48:38;10.80;;;1.67;;
44426;SDS011;30133;47.866;-4.222;2024-03-23T09:51:24;4.93;;;1.52;;
44426;SDS011;30133;47.866;-4.222;2024-03-23T09:54:10;6.70;;;1.42;;
44426;SDS011;30133;47.866;-4.222;2024-03-23T09:56:57;11.40;;;2.13;;
44426;SDS011;30133;47.866;-4.222;2024-03-23T09:59:43;13.90;;;2.40;;
44426;SDS011;30133;47.866;-4.222;2024-03-23T10:02:30;7.82;;;1.60;;
44426;SDS011;30133;47.866;-4.222;2024-03-23T10:05:22;10.25;;;1.75;;
44426;SDS011;30133;47.866;-4.222;2024-03-23T10:11:34;24.08;;;2.20;;
44426;SDS011;30133;47.866;-4.222;2024-03-23T10:14:22;11.20;;;2.00;;
44426;SDS011;30133;47.866;-4.222;2024-03-23T10:17:19;19.05;;;2.00;;
44426;SDS011;30133;47.866;-4.222;2024-03-23T10:20:11;13.80;;;1.95;;
44426;SDS011;30133;47.866;-4.222;2024-03-23T10:22:57;21.33;;;1.98;;
44426;SDS011;30133;47.866;-4.222;2024-03-23T10:25:43;13.20;;;1.88;;
44426;SDS011;30133;47.866;-4.222;2024-03-23T10:28:31;21.98;;;2.05;;
44426;SDS011;30133;47.866;-4.222;2024-03-23T10:31:17;7.20;;;1.60;;
44426;SDS011;30133;47.866;-4.222;2024-03-23T10:34:04;13.48;;;2.20;;
44426;SDS011;30133;47.866;-4.222;2024-03-23T10:36:50;18.88;;;2.55;;
44426;SDS011;30133;47.866;-4.222;2024-03-23T10:39:40;16.08;;;2.05;;
44426;SDS011;30133;47.866;-4.222;2024-03-23T10:42:26;15.27;;;1.85;;
44426;SDS011;30133;47.866;-4.222;2024-03-23T10:45:12;9.13;;;1.92;;
44426;SDS011;30133;47.866;-4.222;2024-03-23T10:48:08;25.33;;;2.70;;
44426;SDS011;30133;47.866;-4.222;2024-03-23T10:50:54;24.45;;;2.25;;
44426;SDS011;30133;47.866;-4.222;2024-03-23T10:53:40;19.42;;;1.70;;
44426;SDS011;30133;47.866;-4.222;2024-03-23T10:56:26;13.55;;;1.85;;
44426;SDS011;30133;47.866;-4.222;2024-03-23T10:59:19;15.35;;;2.05;;
44426;SDS011;30133;47.866;-4.222;2024-03-23T11:02:06;12.45;;;2.33;;
44426;SDS011;30133;47.866;-4.222;2024-03-23T11:04:55;9.13;;;2.05;;
44426;SDS011;30133;47.866;-4.222;2024-03-23T11:07:41;16.05;;;1.95;;
44426;SDS011;30133;47.866;-4.222;2024-03-23T11:10:35;9.80;;;1.80;;
44426;SDS011;30133;47.866;-4.222;2024-03-23T11:13:22;7.70;;;2.28;;
44426;SDS011;30133;47.866;-4.222;2024-03-23T11:16:28;19.20;;;2.00;;
44426;SDS011;30133;47.866;-4.222;2024-03-23T11:19:33;8.65;;;1.80;;
44426;SDS011;30133;47.866;-4.222;2024-03-23T11:25:38;9.05;;;1.83;;
44426;SDS011;30133;47.866;-4.222;2024-03-23T11:28:24;7.55;;;1.50;;
44426;SDS011;30133;47.866;-4.222;2024-03-23T11:31:10;5.90;;;1.17;;
44426;SDS011;30133;47.866;-4.222;2024-03-23T11:34:05;7.43;;;1.40;;
44426;SDS011;30133;47.866;-4.222;2024-03-23T11:36:53;6.75;;;1.70;;
44426;SDS011;30133;47.866;-4.222;2024-03-23T11:39:49;3.20;;;1.38;;
44426;SDS011;30133;47.866;-4.222;2024-03-23T11:42:35;4.57;;;1.40;;
44426;SDS011;30133;47.866;-4.222;2024-03-23T11:45:22;6.22;;;1.55;;
44426;SDS011;30133;47.866;-4.222;2024-03-23T11:48:16;7.55;;;1.73;;
44426;SDS011;30133;47.866;-4.222;2024-03-23T11:51:03;4.40;;;1.10;;
44426;SDS011;30133;47.866;-4.222;2024-03-23T11:53:51;9.60;;;1.50;;
44426;SDS011;30133;47.866;-4.222;2024-03-23T11:56:37;8.57;;;1.88;;
44426;SDS011;30133;47.866;-4.222;2024-03-23T11:59:39;8.95;;;1.55;;
44426;SDS011;30133;47.866;-4.222;2024-03-23T12:02:26;11.40;;;1.80;;
44426;SDS011;30133;47.866;-4.222;2024-03-23T12:05:13;8.07;;;1.85;;
44426;SDS011;30133;47.866;-4.222;2024-03-23T12:11:10;6.90;;;2.00;;
44426;SDS011;30133;47.866;-4.222;2024-03-23T12:13:59;7.75;;;1.52;;
44426;SDS011;30133;47.866;-4.222;2024-03-23T12:16:45;10.35;;;1.50;;
44426;SDS011;30133;47.866;-4.222;2024-03-23T12:19:31;6.93;;;1.40;;
44426;SDS011;30133;47.866;-4.222;2024-03-23T12:22:24;9.65;;;1.65;;
44426;SDS011;30133;47.866;-4.222;2024-03-23T12:25:10;4.40;;;1.17;;
44426;SDS011;30133;47.866;-4.222;2024-03-23T12:27:59;7.35;;;1.30;;
44426;SDS011;30133;47.866;-4.222;2024-03-23T12:30:45;7.70;;;1.60;;
44426;SDS011;30133;47.866;-4.222;2024-03-23T12:33:31;17.38;;;1.75;;
44426;SDS011;30133;47.866;-4.222;2024-03-23T12:36:17;8.13;;;1.55;;
44426;SDS011;30133;47.866;-4.222;2024-03-23T12:39:03;29.73;;;2.42;;
44426;SDS011;30133;47.866;-4.222;2024-03-23T12:41:50;20.73;;;1.70;;
44426;SDS011;30133;47.866;-4.222;2024-03-23T12:44:38;7.72;;;1.60;;
44426;SDS011;30133;47.866;-4.222;2024-03-23T12:47:24;8.75;;;1.30;;
44426;SDS011;30133;47.866;-4.222;2024-03-23T12:50:16;13.95;;;1.50;;
44426;SDS011;30133;47.866;-4.222;2024-03-23T12:53:02;11.77;;;1.58;;
44426;SDS011;30133;47.866;-4.222;2024-03-23T12:55:55;8.80;;;1.33;;
44426;SDS011;30133;47.866;-4.222;2024-03-23T12:58:42;6.70;;;1.52;;
44426;SDS011;30133;47.866;-4.222;2024-03-23T13:01:28;10.07;;;1.85;;
44426;SDS011;30133;47.866;-4.222;2024-03-23T13:04:14;7.50;;;1.20;;
44426;SDS011;30133;47.866;-4.222;2024-03-23T13:07:01;9.18;;;1.73;;
44426;SDS011;30133;47.866;-4.222;2024-03-23T13:09:51;9.63;;;1.40;;
44426;SDS011;30133;47.866;-4.222;2024-03-23T13:12:38;6.60;;;1.33;;
44426;SDS011;30133;47.866;-4.222;2024-03-23T13:15:24;8.27;;;1.58;;
44426;SDS011;30133;47.866;-4.222;2024-03-23T13:18:25;6.90;;;1.33;;
44426;SDS011;30133;47.866;-4.222;2024-03-23T13:21:18;9.77;;;1.63;;
44426;SDS011;30133;47.866;-4.222;2024-03-23T13:24:10;8.50;;;1.60;;
44426;SDS011;30133;47.866;-4.222;2024-03-23T13:26:56;5.72;;;1.42;;
44426;SDS011;30133;47.866;-4.222;2024-03-23T13:29:43;9.02;;;1.52;;
44426;SDS011;30133;47.866;-4.222;2024-03-23T13:32:31;5.22;;;1.52;;
44426;SDS011;30133;47.866;-4.222;2024-03-23T13:35:17;8.88;;;1.90;;
44426;SDS011;30133;47.866;-4.222;2024-03-23T13:38:04;8.40;;;1.63;;
44426;SDS011;30133;47.866;-4.222;2024-03-23T13:40:50;8.75;;;1.48;;
44426;SDS011;30133;47.866;-4.222;2024-03-23T13:43:37;9.23;;;1.65;;
44426;SDS011;30133;47.866;-4.222;2024-03-23T13:46:23;7.20;;;1.20;;
44426;SDS011;30133;47.866;-4.222;2024-03-23T13:49:18;8.73;;;1.70;;
44426;SDS011;30133;47.866;-4.222;2024-03-23T13:52:19;7.32;;;1.40;;
44426;SDS011;30133;47.866;-4.222;2024-03-23T13:55:08;17.05;;;1.63;;
44426;SDS011;30133;47.866;-4.222;2024-03-23T13:57:56;10.93;;;1.48;;
44426;SDS011;30133;47.866;-4.222;2024-03-23T14:00:43;11.52;;;1.63;;
44426;SDS011;30133;47.866;-4.222;2024-03-23T14:03:29;6.03;;;0.90;;
44426;SDS011;30133;47.866;-4.222;2024-03-23T14:06:15;13.90;;;1.80;;
44426;SDS011;30133;47.866;-4.222;2024-03-23T14:09:01;10.35;;;1.30;;
44426;SDS011;30133;47.866;-4.222;2024-03-23T14:11:49;10.52;;;1.85;;
44426;SDS011;30133;47.866;-4.222;2024-03-23T14:14:37;12.15;;;1.48;;
44426;SDS011;30133;47.866;-4.222;2024-03-23T14:17:23;10.02;;;1.35;;
44426;SDS011;30133;47.866;-4.222;2024-03-23T14:20:11;7.03;;;2.33;;
44426;SDS011;30133;47.866;-4.222;2024-03-23T14:23:05;10.60;;;1.30;;
44426;SDS011;30133;47.866;-4.222;2024-03-23T14:25:55;11.57;;;1.42;;
44426;SDS011;30133;47.866;-4.222;2024-03-23T14:28:41;5.72;;;1.48;;
44426;SDS011;30133;47.866;-4.222;2024-03-23T14:31:28;7.20;;;1.48;;
44426;SDS011;30133;47.866;-4.222;2024-03-23T14:34:14;9.35;;;2.28;;
44426;SDS011;30133;47.866;-4.222;2024-03-23T14:37:00;5.65;;;1.35;;
44426;SDS011;30133;47.866;-4.222;2024-03-23T14:39:46;11.15;;;1.85;;
44426;SDS011;30133;47.866;-4.222;2024-03-23T14:42:32;8.70;;;1.50;;
44426;SDS011;30133;47.866;-4.222;2024-03-23T14:45:19;8.65;;;1.45;;
44426;SDS011;30133;47.866;-4.222;2024-03-23T14:48:05;11.60;;;1.90;;
44426;SDS011;30133;47.866;-4.222;2024-03-23T14:50:56;8.65;;;1.65;;
44426;SDS011;30133;47.866;-4.222;2024-03-23T14:53:44;5.47;;;1.50;;
44426;SDS011;30133;47.866;-4.222;2024-03-23T14:56:31;6.25;;;1.38;;
44426;SDS011;30133;47.866;-4.222;2024-03-23T14:59:17;12.82;;;2.08;;
44426;SDS011;30133;47.866;-4.222;2024-03-23T15:02:04;13.05;;;1.60;;
44426;SDS011;30133;47.866;-4.222;2024-03-23T15:04:50;12.85;;;2.22;;
44426;SDS011;30133;47.866;-4.222;2024-03-23T15:07:36;18.38;;;2.10;;
44426;SDS011;30133;47.866;-4.222;2024-03-23T15:10:25;14.70;;;2.70;;
44426;SDS011;30133;47.866;-4.222;2024-03-23T15:13:11;18.10;;;2.10;;
44426;SDS011;30133;47.866;-4.222;2024-03-23T15:15:58;15.52;;;2.05;;
44426;SDS011;30133;47.866;-4.222;2024-03-23T15:18:44;16.33;;;2.30;;
44426;SDS011;30133;47.866;-4.222;2024-03-23T15:21:30;12.85;;;1.42;;
44426;SDS011;30133;47.866;-4.222;2024-03-23T15:24:23;8.70;;;1.75;;
44426;SDS011;30133;47.866;-4.222;2024-03-23T15:27:09;8.95;;;1.65;;
44426;SDS011;30133;47.866;-4.222;2024-03-23T15:29:58;8.38;;;1.70;;
44426;SDS011;30133;47.866;-4.222;2024-03-23T15:32:44;10.88;;;2.20;;
44426;SDS011;30133;47.866;-4.222;2024-03-23T15:35:30;8.80;;;1.90;;
44426;SDS011;30133;47.866;-4.222;2024-03-23T15:38:17;9.88;;;1.88;;
44426;SDS011;30133;47.866;-4.222;2024-03-23T15:41:04;11.00;;;1.75;;
44426;SDS011;30133;47.866;-4.222;2024-03-23T15:43:51;7.88;;;1.75;;
44426;SDS011;30133;47.866;-4.222;2024-03-23T15:46:38;10.95;;;2.33;;
44426;SDS011;30133;47.866;-4.222;2024-03-23T15:49:24;19.88;;;3.83;;
44426;SDS011;30133;47.866;-4.222;2024-03-23T15:52:11;14.27;;;2.70;;
44426;SDS011;30133;47.866;-4.222;2024-03-23T15:54:57;9.98;;;1.75;;
44426;SDS011;30133;47.866;-4.222;2024-03-23T15:57:45;9.00;;;1.90;;
44426;SDS011;30133;47.866;-4.222;2024-03-23T16:00:31;7.45;;;1.67;;
44426;SDS011;30133;47.866;-4.222;2024-03-23T16:03:17;6.65;;;2.08;;
44426;SDS011;30133;47.866;-4.222;2024-03-23T16:06:04;15.57;;;2.42;;
44426;SDS011;30133;47.866;-4.222;2024-03-23T16:08:52;14.32;;;2.17;;
44426;SDS011;30133;47.866;-4.222;2024-03-23T16:11:38;10.32;;;1.88;;
44426;SDS011;30133;47.866;-4.222;2024-03-23T16:14:24;38.00;;;3.47;;
44426;SDS011;30133;47.866;-4.222;2024-03-23T16:17:10;27.77;;;3.15;;
44426;SDS011;30133;47.866;-4.222;2024-03-23T16:19:56;37.42;;;2.85;;
44426;SDS011;30133;47.866;-4.222;2024-03-23T16:22:42;35.88;;;2.55;;
44426;SDS011;30133;47.866;-4.222;2024-03-23T16:25:36;35.05;;;3.38;;
44426;SDS011;30133;47.866;-4.222;2024-03-23T16:28:30;35.38;;;2.83;;
44426;SDS011;30133;47.866;-4.222;2024-03-23T16:31:17;27.88;;;2.63;;
44426;SDS011;30133;47.866;-4.222;2024-03-23T16:34:04;45.67;;;2.63;;
44426;SDS011;30133;47.866;-4.222;2024-03-23T16:36:50;31.58;;;3.30;;
44426;SDS011;30133;47.866;-4.222;2024-03-23T16:39:36;18.73;;;2.72;;
44426;SDS011;30133;47.866;-4.222;2024-03-23T16:42:22;26.02;;;2.72;;
44426;SDS011;30133;47.866;-4.222;2024-03-23T16:45:08;36.22;;;2.83;;
44426;SDS011;30133;47.866;-4.222;2024-03-23T16:47:54;21.15;;;2.17;;
44426;SDS011;30133;47.866;-4.222;2024-03-23T16:50:41;22.20;;;2.13;;
44426;SDS011;30133;47.866;-4.222;2024-03-23T16:53:28;21.90;;;2.63;;
44426;SDS011;30133;47.866;-4.222;2024-03-23T16:56:15;28.08;;;2.05;;
44426;SDS011;30133;47.866;-4.222;2024-03-23T16:59:02;20.25;;;2.50;;
44426;SDS011;30133;47.866;-4.222;2024-03-23T17:01:49;18.65;;;2.38;;
44426;SDS011;30133;47.866;-4.222;2024-03-23T17:04:36;15.93;;;2.20;;
44426;SDS011;30133;47.866;-4.222;2024-03-23T17:07:22;25.27;;;2.22;;
44426;SDS011;30133;47.866;-4.222;2024-03-23T17:10:08;26.23;;;2.75;;
44426;SDS011;30133;47.866;-4.222;2024-03-23T17:12:54;21.60;;;2.33;;
44426;SDS011;30133;47.866;-4.222;2024-03-23T17:15:44;9.35;;;1.88;;
44426;SDS011;30133;47.866;-4.222;2024-03-23T17:18:31;16.20;;;2.63;;
44426;SDS011;30133;47.866;-4.222;2024-03-23T17:21:18;13.45;;;1.58;;
44426;SDS011;30133;47.866;-4.222;2024-03-23T17:24:04;16.65;;;2.10;;
44426;SDS011;30133;47.866;-4.222;2024-03-23T17:26:57;13.93;;;2.00;;
44426;SDS011;30133;47.866;-4.222;2024-03-23T17:29:43;15.20;;;1.80;;
44426;SDS011;30133;47.866;-4.222;2024-03-23T17:32:29;8.82;;;1.88;;